EPZG/IEG METAR and TAF weather

Enter ICAO airport designator
Station Type Date Time Source
EPZG METAR 2018/01/21 12:00 UTC NOAA

EPZG 211200Z 02005KT 3600 BR OVC007 M00/M00 Q1013


Station Type Date Time Source
EPZG Decoded METAR 2018/01/21 12:00 UTC NOAA

Zielona Gora, Poland (EPZG) 51-56N 015-32E 192M
Jan 21, 2018 - 07:00 AM EST / 2018.01.21 1200 UTC
Wind: from the NNE (020 degrees) at 6 MPH (5 KT):0
Visibility: 2 mile(s):0
Sky conditions: overcast
Weather: mist
Temperature: 32 F (0 C)
Windchill: 26 F (-3 C):1
Dew Point: 32 F (0 C)
Relative Humidity: 100%
Pressure (altimeter): 29.91 in. Hg (1013 hPa)
ob: EPZG 211200Z 02005KT 3600 BR OVC007 M00/M00 Q1013
cycle: 12

Station Type Date Time Source
EPZG TAF 2012/06/28 21:49 UTC NOAA

TAF EPZG 282000Z 2821/2906 VRB02KT CAVOK
TEMPO 2823/2904 5000 BR PROB30 2900/2904 1500 BR BKN005


Example: see airport list